createdAt,value
2018-06-22T00:02:16.638Z,97185.62
2018-06-22T00:04:57.195Z,97185.91
2018-06-22T00:13:22.510Z,97192.08
2018-06-22T00:16:08.597Z,97203.03
2018-06-22T00:18:54.106Z,97198.48
2018-06-22T00:21:30.343Z,97195.54
2018-06-22T00:24:06.347Z,97191.82
2018-06-22T00:26:53.571Z,97196.08
2018-06-22T00:29:36.554Z,97195.30
2018-06-22T00:35:10.912Z,97192.30
2018-06-22T00:37:40.714Z,97200.08
2018-06-22T00:40:10.532Z,97203.29
2018-06-22T00:42:40.281Z,97199.27
2018-06-22T00:45:09.923Z,97191.50
2018-06-22T00:47:39.735Z,97190.20
2018-06-22T00:50:09.422Z,97193.17
2018-06-22T00:52:39.258Z,97201.99
2018-06-22T00:55:08.949Z,97205.20
2018-06-22T00:57:38.563Z,97205.76
2018-06-22T01:00:08.321Z,97200.12
2018-06-22T01:02:38.424Z,97209.23
2018-06-22T01:05:08.259Z,97213.25
2018-06-22T01:07:37.939Z,97196.66
2018-06-22T01:10:07.720Z,97206.02
2018-06-22T01:12:37.529Z,97215.42
2018-06-22T01:15:07.656Z,97214.61
2018-06-22T01:17:37.416Z,97224.24
2018-06-22T01:20:07.111Z,97223.67
2018-06-22T01:22:36.814Z,97224.71
2018-06-22T01:25:06.506Z,97223.62
2018-06-22T01:27:36.238Z,97230.08
2018-06-22T01:30:06.176Z,97230.08
2018-06-22T01:32:36.034Z,97228.79
2018-06-22T01:35:05.761Z,97229.88
2018-06-22T01:37:36.345Z,97235.50
2018-06-22T01:40:06.040Z,97232.00
2018-06-22T01:42:35.793Z,97232.84
2018-06-22T01:45:05.500Z,97243.29
2018-06-22T01:47:35.192Z,97243.56
2018-06-22T01:50:04.797Z,97247.58
2018-06-22T01:52:34.583Z,97254.28
2018-06-22T01:55:04.407Z,97251.32
2018-06-22T01:57:34.158Z,97250.51
2018-06-22T02:00:03.854Z,97255.33
2018-06-22T02:02:33.623Z,97251.58
2018-06-22T02:05:03.361Z,97258.29
2018-06-22T02:07:33.011Z,97259.91
2018-06-22T02:10:02.669Z,97272.48
2018-06-22T02:12:32.402Z,97269.00
2018-06-22T02:15:02.890Z,97279.72
2018-06-22T02:17:32.967Z,97285.89
2018-06-22T02:20:02.711Z,97283.75
2018-06-22T02:22:32.399Z,97281.31
2018-06-22T02:25:02.040Z,97280.23
2018-06-22T02:27:31.851Z,97282.59
2018-06-22T02:30:01.624Z,97291.88
2018-06-22T02:32:31.354Z,97301.50
2018-06-22T02:35:01.090Z,97296.98
2018-06-22T02:37:30.951Z,97295.87
2018-06-22T02:40:01.035Z,97299.36
2018-06-22T02:42:31.065Z,97312.77
2018-06-22T02:45:01.163Z,97314.91
2018-06-22T02:47:31.372Z,97315.13
2018-06-22T02:50:01.744Z,97319.64
2018-06-22T02:52:31.442Z,97323.41
2018-06-22T02:55:02.028Z,97329.88
2018-06-22T02:57:31.786Z,97335.50
2018-06-22T03:00:01.548Z,97340.09
2018-06-22T03:02:31.168Z,97343.53
2018-06-22T03:05:00.840Z,97350.23
2018-06-22T03:07:30.790Z,97349.40
2018-06-22T03:10:03.487Z,97356.41
2018-06-22T03:12:33.086Z,97358.47
2018-06-22T03:15:03.425Z,97370.70
2018-06-22T03:17:33.759Z,97369.10
2018-06-22T03:20:03.595Z,97365.89
2018-06-22T03:22:39.871Z,97370.11
2018-06-22T03:25:10.796Z,97356.96
2018-06-22T03:27:40.627Z,97371.54
2018-06-22T03:30:13.713Z,97378.57
2018-06-22T03:32:44.098Z,97369.20
2018-06-22T03:35:16.962Z,97365.86
2018-06-22T03:37:47.597Z,97365.72
2018-06-22T03:40:20.027Z,97352.59
2018-06-22T03:42:51.738Z,97355.71
2018-06-22T03:45:21.879Z,97362.77
2018-06-22T03:47:51.831Z,97356.02
2018-06-22T03:50:22.049Z,97358.47
2018-06-22T03:52:53.222Z,97355.02
2018-06-22T03:55:26.798Z,97359.61
2018-06-22T03:57:57.478Z,97355.02
2018-06-22T04:00:27.663Z,97358.59
2018-06-22T04:02:58.608Z,97378.69
2018-06-22T04:05:29.891Z,97379.16
2018-06-22T04:08:00.102Z,97387.75
2018-06-22T04:10:33.281Z,97393.39
2018-06-22T04:13:06.787Z,97394.19
2018-06-22T04:15:39.985Z,97399.30
2018-06-22T04:18:10.673Z,97416.26
2018-06-22T04:20:43.361Z,97423.92
2018-06-22T04:23:14.509Z,97433.98
2018-06-22T04:25:44.134Z,97431.92
2018-06-22T04:28:14.112Z,97433.24
2018-06-22T04:30:45.737Z,97440.25
2018-06-22T04:33:16.822Z,97439.61
2018-06-22T04:35:47.477Z,97453.15
2018-06-22T04:38:17.971Z,97460.88
2018-06-22T04:40:47.684Z,97472.16
2018-06-22T04:43:17.333Z,97474.54
2018-06-22T04:45:47.628Z,97478.98
2018-06-22T04:48:17.221Z,97480.23
2018-06-22T04:50:46.812Z,97480.78
2018-06-22T04:53:16.512Z,97484.92
2018-06-22T04:55:46.144Z,97503.80
2018-06-22T04:58:15.780Z,97504.72
2018-06-22T05:00:45.399Z,97507.56
2018-06-22T05:03:14.998Z,97511.08
2018-06-22T05:05:44.647Z,97511.53
2018-06-22T05:08:14.316Z,97513.44
2018-06-22T05:10:44.105Z,97509.03
2018-06-22T05:13:13.794Z,97510.00
2018-06-22T05:15:43.480Z,97521.30
2018-06-22T05:18:13.037Z,97517.53
2018-06-22T05:20:42.870Z,97520.20
2018-06-22T05:23:12.770Z,97525.52
2018-06-22T05:25:44.284Z,97524.37
2018-06-22T05:28:14.284Z,97543.71
2018-06-22T05:30:46.114Z,97549.02
2018-06-22T05:33:15.981Z,97560.66
2018-06-22T05:35:45.704Z,97572.97
2018-06-22T05:38:15.372Z,97577.02
2018-06-22T05:40:45.073Z,97580.81
2018-06-22T05:43:23.689Z,97576.71
2018-06-22T05:45:53.426Z,97574.57
2018-06-22T05:48:23.068Z,97575.91
2018-06-22T05:50:52.861Z,97570.47
2018-06-22T05:53:22.436Z,97583.25
2018-06-22T05:55:52.232Z,97590.79
2018-06-22T05:58:21.970Z,97590.89
2018-06-22T06:00:52.687Z,97592.66
2018-06-22T06:03:23.585Z,97587.63
2018-06-22T06:05:53.301Z,97590.38
2018-06-22T06:08:23.053Z,97590.29
2018-06-22T06:10:52.888Z,97596.48
2018-06-22T06:13:22.705Z,97585.98
2018-06-22T06:15:52.284Z,97579.80
2018-06-22T06:18:22.146Z,97573.72
2018-06-22T06:20:52.035Z,97600.46
2018-06-22T06:23:21.760Z,97598.77
2018-06-22T06:25:51.628Z,97599.80
2018-06-22T06:28:21.281Z,97609.31
2018-06-22T06:30:50.959Z,97605.32
2018-06-22T06:33:20.588Z,97588.83
2018-06-22T06:35:50.320Z,97598.42
2018-06-22T06:38:20.045Z,97607.17
2018-06-22T06:40:49.950Z,97615.61
2018-06-22T06:43:19.627Z,97625.00
2018-06-22T06:45:49.355Z,97625.25
2018-06-22T06:50:54.642Z,97634.09
2018-06-22T06:53:24.253Z,97636.55
2018-06-22T06:55:53.912Z,97643.91
2018-06-22T06:58:23.653Z,97642.48
2018-06-22T07:00:53.293Z,97642.77
2018-06-22T07:05:58.520Z,97641.48
2018-06-22T07:08:28.265Z,97643.71
2018-06-22T07:10:57.904Z,97642.77
2018-06-22T07:13:27.588Z,97640.47
2018-06-22T07:15:57.357Z,97636.11
2018-06-22T07:18:30.852Z,97626.38
2018-06-22T07:21:00.527Z,97632.58
2018-06-22T07:23:30.876Z,97637.91
2018-06-22T07:26:00.547Z,97646.30
2018-06-22T07:28:30.411Z,97649.88
2018-06-22T07:31:00.147Z,97649.42
2018-06-22T07:33:29.936Z,97657.36
2018-06-22T07:35:59.578Z,97655.02
2018-06-22T07:38:29.154Z,97656.13
2018-06-22T07:41:02.429Z,97655.61
2018-06-22T07:43:32.420Z,97664.80
2018-06-22T07:46:02.273Z,97660.23
2018-06-22T07:48:31.961Z,97668.34
2018-06-22T07:51:01.962Z,97669.81
2018-06-22T07:53:31.672Z,97689.73
2018-06-22T07:56:01.420Z,97707.59
2018-06-22T07:58:31.629Z,97715.17
2018-06-22T08:03:36.389Z,97717.92
2018-06-22T08:06:06.161Z,97706.20
2018-06-22T08:08:35.879Z,97700.56
2018-06-22T08:11:07.527Z,97698.57
2018-06-22T08:13:37.162Z,97689.73
2018-06-22T08:16:06.764Z,97692.41
2018-06-22T08:18:36.458Z,97704.73
2018-06-22T08:21:06.664Z,97710.47
2018-06-22T08:23:36.464Z,97721.95
2018-06-22T08:26:06.167Z,97738.91
2018-06-22T08:28:35.860Z,97737.17
2018-06-22T08:33:40.184Z,97720.78
2018-06-22T08:36:09.794Z,97708.45
2018-06-22T08:38:39.450Z,97711.80
2018-06-22T08:41:13.195Z,97713.47
2018-06-22T08:43:43.016Z,97726.86
2018-06-22T08:46:12.876Z,97733.00
2018-06-22T08:48:42.631Z,97737.80
2018-06-22T08:51:12.429Z,97734.73
2018-06-22T08:53:42.161Z,97717.49
2018-06-22T08:56:11.849Z,97690.67
2018-06-22T08:58:41.704Z,97687.95
2018-06-22T09:01:11.358Z,97695.30
2018-06-22T09:03:41.068Z,97717.13
2018-06-22T09:06:10.723Z,97714.06
2018-06-22T09:08:40.421Z,97718.51
2018-06-22T09:11:10.240Z,97728.69
2018-06-22T09:13:39.980Z,97749.22
2018-06-22T09:16:09.637Z,97760.63
2018-06-22T09:18:39.379Z,97760.00
2018-06-22T09:21:09.002Z,97758.98
2018-06-22T09:23:38.636Z,97753.02
2018-06-22T09:26:08.428Z,97745.54
2018-06-22T09:28:38.224Z,97752.13
2018-06-22T09:33:43.717Z,97756.68
2018-06-22T09:36:13.446Z,97758.78
2018-06-22T09:41:18.980Z,97758.42
2018-06-22T09:43:48.708Z,97750.43
2018-06-22T09:46:18.430Z,97745.83
2018-06-22T09:48:48.157Z,97747.23
2018-06-22T09:51:17.882Z,97745.37
2018-06-22T09:53:47.651Z,97749.61
2018-06-22T09:56:17.392Z,97761.30
2018-06-22T09:58:47.215Z,97772.40
2018-06-22T10:01:18.692Z,97761.55
2018-06-22T10:03:48.348Z,97764.41
2018-06-22T10:06:17.966Z,97772.60
2018-06-22T10:11:22.633Z,97767.12
2018-06-22T10:13:52.459Z,97776.00
2018-06-22T10:16:22.082Z,97780.87
2018-06-22T10:18:51.824Z,97772.11
2018-06-22T10:21:21.708Z,97757.23
2018-06-22T10:23:53.203Z,97757.72
2018-06-22T10:26:22.863Z,97753.16
2018-06-22T10:28:52.624Z,97755.70
2018-06-22T10:31:22.272Z,97755.62
2018-06-22T10:33:51.961Z,97757.61
2018-06-22T10:36:21.507Z,97746.84
2018-06-22T10:38:51.149Z,97737.61
2018-06-22T10:41:20.931Z,97755.75
2018-06-22T10:43:50.700Z,97751.08
2018-06-22T10:46:20.384Z,97753.67
2018-06-22T10:48:50.121Z,97747.05
2018-06-22T10:51:19.872Z,97744.37
2018-06-22T10:53:49.580Z,97744.52
2018-06-22T10:56:19.211Z,97735.66
2018-06-22T10:58:48.883Z,97735.90
2018-06-22T11:01:18.536Z,97730.01
2018-06-22T11:03:48.226Z,97726.81
2018-06-22T11:06:17.906Z,97721.75
2018-06-22T11:08:47.555Z,97720.91
2018-06-22T11:13:52.938Z,97726.16
2018-06-22T11:16:24.366Z,97715.89
2018-06-22T11:18:53.987Z,97717.70
2018-06-22T11:21:23.860Z,97709.41
2018-06-22T11:23:53.552Z,97704.20
2018-06-22T11:26:23.446Z,97697.56
2018-06-22T11:28:53.076Z,97694.38
2018-06-22T11:31:23.001Z,97690.95
2018-06-22T11:33:52.725Z,97689.53
2018-06-22T11:36:22.498Z,97691.30
2018-06-22T11:41:26.892Z,97672.73
2018-06-22T11:43:56.620Z,97674.21
2018-06-22T11:46:26.470Z,97677.64
2018-06-22T11:48:56.449Z,97674.53
2018-06-22T11:51:26.143Z,97676.70
2018-06-22T11:53:55.964Z,97675.20
2018-06-22T11:56:25.646Z,97672.20
2018-06-22T11:58:55.269Z,97674.27
2018-06-22T12:01:24.996Z,97673.48
2018-06-22T12:03:54.742Z,97671.06
2018-06-22T12:06:24.397Z,97673.28
2018-06-22T12:08:54.361Z,97665.88
2018-06-22T12:11:24.167Z,97659.78
2018-06-22T12:13:53.781Z,97647.10
2018-06-22T12:16:26.685Z,97646.77
2018-06-22T12:18:56.462Z,97646.79
2018-06-22T12:21:28.265Z,97649.58
2018-06-22T12:23:58.169Z,97648.34
2018-06-22T12:26:28.888Z,97643.98
2018-06-22T12:29:00.339Z,97641.14
2018-06-22T12:31:30.830Z,97643.06
2018-06-22T12:34:07.247Z,97638.25
2018-06-22T12:36:39.436Z,97642.67
2018-06-22T12:39:12.608Z,97635.44
2018-06-22T12:41:44.357Z,97641.66
2018-06-22T12:44:17.448Z,97639.86
2018-06-22T12:46:48.807Z,97644.66
2018-06-22T12:49:19.338Z,97642.98
2018-06-22T12:51:49.742Z,97642.69
2018-06-22T12:54:24.422Z,97641.77
2018-06-22T12:56:56.657Z,97637.56
2018-06-22T12:59:28.257Z,97629.98
2018-06-22T13:01:58.548Z,97624.57
2018-06-22T13:04:28.652Z,97636.78
2018-06-22T13:06:59.107Z,97638.25
2018-06-22T13:09:28.919Z,97635.55
2018-06-22T13:14:34.552Z,97631.00
2018-06-22T13:17:05.732Z,97637.15
2018-06-22T13:19:35.654Z,97642.56
2018-06-22T13:22:06.309Z,97648.27
2018-06-22T13:24:36.123Z,97655.77
2018-06-22T13:27:06.036Z,97646.90
2018-06-22T13:29:35.829Z,97648.98
2018-06-22T13:32:05.533Z,97653.89
2018-06-22T13:34:35.140Z,97658.52
2018-06-22T13:37:05.231Z,97659.03
2018-06-22T13:42:12.645Z,97658.69
2018-06-22T13:44:44.159Z,97657.05
2018-06-22T13:47:14.227Z,97654.45
2018-06-22T13:49:45.856Z,97660.01
2018-06-22T13:52:21.708Z,97653.19
2018-06-22T13:54:53.994Z,97651.13
2018-06-22T13:57:26.648Z,97651.33
2018-06-22T13:59:56.445Z,97652.05
2018-06-22T14:02:27.569Z,97652.05
2018-06-22T14:05:03.151Z,97646.66
2018-06-22T14:07:33.745Z,97651.34
2018-06-22T14:10:06.929Z,97653.74
2018-06-22T14:12:46.475Z,97656.48
2018-06-22T14:15:18.965Z,97644.69
2018-06-22T14:17:49.328Z,97638.48
2018-06-22T14:20:19.851Z,97642.14
2018-06-22T14:22:54.273Z,97641.95
2018-06-22T14:25:24.450Z,97639.71
2018-06-22T14:30:31.459Z,97641.38
2018-06-22T14:33:02.403Z,97641.91
2018-06-22T14:35:32.567Z,97643.43
2018-06-22T14:38:03.373Z,97643.11
2018-06-22T14:40:33.616Z,97638.73
2018-06-22T14:43:05.262Z,97638.64
2018-06-22T14:45:37.452Z,97634.45
2018-06-22T14:48:07.940Z,97645.16
2018-06-22T14:50:37.672Z,97643.83
2018-06-22T14:53:13.099Z,97646.49
2018-06-22T14:55:48.080Z,97650.44
2018-06-22T14:58:23.187Z,97643.88
2018-06-22T15:00:58.254Z,97638.83
2018-06-22T15:03:33.640Z,97635.20
2018-06-22T15:06:08.809Z,97637.49
2018-06-22T15:08:38.444Z,97642.68
2018-06-22T15:11:08.296Z,97643.20
2018-06-22T15:13:37.999Z,97638.72
2018-06-22T15:16:07.860Z,97635.84
2018-06-22T15:18:37.547Z,97622.58
2018-06-22T15:21:07.576Z,97624.49
2018-06-22T15:23:37.573Z,97631.29
2018-06-22T15:26:07.204Z,97632.45
2018-06-22T15:28:37.332Z,97640.88
2018-06-22T15:31:07.656Z,97635.17
2018-06-22T15:33:42.708Z,97631.59
2018-06-22T15:41:04.700Z,97626.64
2018-06-22T15:43:39.608Z,97630.49
2018-06-22T15:46:14.615Z,97635.89
2018-06-22T15:48:49.889Z,97631.18
2018-06-22T15:51:24.863Z,97626.62
2018-06-22T15:53:59.738Z,97625.66
2018-06-22T15:56:29.480Z,97634.27
2018-06-22T15:59:05.916Z,97644.38
2018-06-22T16:01:36.876Z,97646.16
2018-06-22T16:04:10.605Z,97647.45
2018-06-22T16:09:19.407Z,97653.64
2018-06-22T16:11:50.044Z,97651.52
2018-06-22T16:14:24.871Z,97653.30
2018-06-22T16:17:00.254Z,97655.86
2018-06-22T16:19:35.075Z,97665.67
2018-06-22T16:22:09.977Z,97663.89
2018-06-22T16:26:45.765Z,97677.72
2018-06-22T16:29:15.638Z,97678.78
2018-06-22T16:31:45.578Z,97679.28
2018-06-22T16:34:15.314Z,97696.05
2018-06-22T16:36:45.020Z,97696.19
2018-06-22T16:39:15.046Z,97701.72
2018-06-22T16:41:44.778Z,97707.64
2018-06-22T16:44:14.743Z,97707.02
2018-06-22T16:46:44.860Z,97723.23
2018-06-22T16:49:14.647Z,97732.69
2018-06-22T16:51:44.375Z,97734.33
2018-06-22T16:54:14.089Z,97742.21
2018-06-22T16:56:43.752Z,97765.02
2018-06-22T16:59:13.483Z,97754.59
2018-06-22T17:01:43.165Z,97754.75
2018-06-22T17:04:15.326Z,97757.94
2018-06-22T17:06:50.432Z,97760.55
2018-06-22T17:09:25.303Z,97767.24
2018-06-22T17:12:01.722Z,97764.92
2018-06-22T17:14:36.680Z,97761.56
2018-06-22T17:17:11.620Z,97763.06
2018-06-22T17:19:41.364Z,97767.69
2018-06-22T17:22:11.194Z,97768.05
2018-06-22T17:24:41.094Z,97770.30
2018-06-22T17:27:11.316Z,97764.26
2018-06-22T17:32:16.604Z,97765.81
2018-06-22T17:34:46.314Z,97756.46
2018-06-22T17:37:15.999Z,97762.39
2018-06-22T17:39:45.735Z,97759.70
2018-06-22T17:42:15.452Z,97753.00
2018-06-22T17:44:45.137Z,97755.71
2018-06-22T17:47:14.868Z,97760.02
2018-06-22T17:49:44.729Z,97758.94
2018-06-22T17:52:14.541Z,97759.11
2018-06-22T17:54:44.213Z,97763.28
2018-06-22T17:57:13.965Z,97765.50
2018-06-22T17:59:48.849Z,97772.23
2018-06-22T18:02:23.525Z,97770.83
2018-06-22T18:04:58.836Z,97769.18
2018-06-22T18:07:33.787Z,97772.28
2018-06-22T18:10:08.614Z,97785.40
2018-06-22T18:12:43.412Z,97792.10
2018-06-22T18:15:12.957Z,97796.78
2018-06-22T18:17:42.548Z,97805.11
2018-06-22T18:20:12.281Z,97798.75
2018-06-22T18:22:41.986Z,97804.43
2018-06-22T18:25:12.245Z,97806.45
2018-06-22T18:27:41.961Z,97808.30
2018-06-22T18:30:15.710Z,97813.48
2018-06-22T18:32:45.477Z,97822.40
2018-06-22T18:35:15.886Z,97811.84
2018-06-22T18:37:53.301Z,97827.66
2018-06-22T18:40:25.604Z,97829.53
2018-06-22T18:42:59.151Z,97827.23
2018-06-22T18:45:30.610Z,97824.81
2018-06-22T18:48:09.913Z,97821.98
2018-06-22T18:50:40.755Z,97829.45
2018-06-22T18:53:16.252Z,97833.86
2018-06-22T18:55:53.000Z,97844.19
2018-06-22T18:58:31.583Z,97857.97
2018-06-22T19:01:07.587Z,97871.91
2018-06-22T19:03:42.649Z,97877.38
2018-06-22T19:06:12.301Z,97892.38
2018-06-22T19:08:41.965Z,97901.61
2018-06-22T19:11:11.728Z,97920.45
2018-06-22T19:13:41.719Z,97916.11
2018-06-22T19:16:11.416Z,97918.63
2018-06-22T19:18:41.075Z,97928.11
2018-06-22T19:21:10.831Z,97940.48
2018-06-22T19:23:40.456Z,97940.47
2018-06-22T19:26:10.178Z,97951.05
2018-06-22T19:28:39.840Z,97939.72
2018-06-22T19:31:09.440Z,97937.33
2018-06-22T19:33:39.086Z,97939.17
2018-06-22T19:36:08.701Z,97943.59
2018-06-22T19:38:38.394Z,97953.92
2018-06-22T19:41:08.029Z,97959.66
2018-06-22T19:43:43.074Z,97947.06
2018-06-22T19:46:17.950Z,97955.94
2018-06-22T19:48:52.879Z,97938.07
2018-06-22T19:51:27.651Z,97944.26
2018-06-22T19:56:39.688Z,97947.34
2018-06-22T19:59:09.295Z,97953.80
2018-06-22T20:01:38.918Z,97953.97
2018-06-22T20:04:08.563Z,97956.73
2018-06-22T20:06:38.345Z,97960.06
2018-06-22T20:09:10.954Z,97955.29
2018-06-22T20:11:40.893Z,97942.53
2018-06-22T20:14:10.610Z,97942.27
2018-06-22T20:16:41.080Z,97935.73
2018-06-22T20:19:11.717Z,97935.59
2018-06-22T20:21:42.099Z,97937.09
2018-06-22T20:24:12.038Z,97932.94
2018-06-22T20:26:41.784Z,97938.68
2018-06-22T20:29:12.344Z,97948.63
2018-06-22T20:31:42.076Z,97949.24
2018-06-22T20:34:16.859Z,97952.66
2018-06-22T20:36:51.674Z,97954.02
2018-06-22T20:40:24.688Z,97946.84
2018-06-22T20:42:56.448Z,97938.36
2018-06-22T20:45:31.807Z,97945.95
2018-06-22T20:48:07.491Z,97937.83
2018-06-22T20:50:38.012Z,97941.98
2018-06-22T20:53:08.513Z,97930.82
2018-06-22T20:55:42.034Z,97937.84
2018-06-22T20:58:11.781Z,97941.29
2018-06-22T21:00:41.389Z,97942.39
2018-06-22T21:03:14.619Z,97943.54
2018-06-22T21:05:44.406Z,97945.14
2018-06-22T21:08:13.978Z,97941.09
2018-06-22T21:10:43.829Z,97939.60
2018-06-22T21:13:13.632Z,97941.64
2018-06-22T21:15:43.119Z,97950.16
2018-06-22T21:18:16.876Z,97945.63
2018-06-22T21:20:53.482Z,97939.67
2018-06-22T21:23:23.229Z,97944.67
2018-06-22T21:25:53.561Z,97950.58
2018-06-22T21:28:29.051Z,97951.22
2018-06-22T21:31:04.625Z,97946.14
2018-06-22T21:33:39.561Z,97949.31
2018-06-22T21:36:15.334Z,97950.56
2018-06-22T21:38:50.148Z,97955.89
2018-06-22T21:41:19.861Z,97957.19
2018-06-22T21:43:49.489Z,97960.64
2018-06-22T21:46:19.195Z,97967.41
2018-06-22T21:48:50.508Z,97965.13
2018-06-22T21:51:20.117Z,97965.19
2018-06-22T21:53:49.824Z,97964.16
2018-06-22T21:56:19.506Z,97969.54
2018-06-22T21:58:50.112Z,97971.16
2018-06-22T22:01:20.470Z,97967.54
2018-06-22T22:03:50.312Z,97955.42
2018-06-22T22:06:19.971Z,97964.08
2018-06-22T22:08:49.841Z,97968.48
2018-06-22T22:11:19.484Z,97961.74
2018-06-22T22:13:49.087Z,97959.83
2018-06-22T22:16:18.787Z,97964.08
2018-06-22T22:18:48.453Z,97954.80
2018-06-22T22:21:18.228Z,97957.40
2018-06-22T22:23:48.581Z,97960.13
2018-06-22T22:26:18.707Z,97971.52
2018-06-22T22:28:48.417Z,97974.29
2018-06-22T22:31:18.126Z,97982.11
2018-06-22T22:33:47.767Z,97975.14
2018-06-22T22:36:17.352Z,97980.86
2018-06-22T22:38:47.039Z,97989.25
2018-06-22T22:41:16.845Z,97992.25
2018-06-22T22:43:46.524Z,97987.75
2018-06-22T22:46:16.185Z,97981.72
2018-06-22T22:48:45.931Z,97987.34
2018-06-22T22:51:15.768Z,97978.16
2018-06-22T22:53:45.502Z,97972.82
2018-06-22T22:56:15.395Z,97975.95
2018-06-22T22:58:44.998Z,97969.91
2018-06-22T23:01:14.939Z,97957.13
2018-06-22T23:03:44.704Z,97950.67
2018-06-22T23:06:14.494Z,97951.06
2018-06-22T23:08:44.197Z,97949.20
2018-06-22T23:11:14.879Z,97949.72
2018-06-22T23:13:44.680Z,97950.41
2018-06-22T23:16:14.536Z,97950.97
2018-06-22T23:18:44.247Z,97946.86
2018-06-22T23:21:14.098Z,97971.53
2018-06-22T23:23:43.708Z,97972.96
2018-06-22T23:26:14.411Z,97970.19
2018-06-22T23:28:44.024Z,97961.45
2018-06-22T23:31:13.647Z,97959.36
2018-06-22T23:33:43.402Z,97954.62
2018-06-22T23:36:13.273Z,97950.30
2018-06-22T23:38:42.984Z,97957.30
2018-06-22T23:41:12.629Z,97952.06
2018-06-22T23:43:42.967Z,97958.70
2018-06-22T23:46:12.723Z,97960.88
2018-06-22T23:48:42.376Z,97967.09
2018-06-22T23:51:12.653Z,97969.00
2018-06-22T23:53:42.465Z,97979.11
2018-06-22T23:56:14.032Z,97978.17
2018-06-22T23:58:43.851Z,97981.63
